createdAt,value
2016-12-21T00:01:04.199Z,1018.63
2016-12-21T00:02:15.183Z,1018.71
2016-12-21T00:03:26.168Z,1018.67
2016-12-21T00:04:37.359Z,1018.7
2016-12-21T00:05:48.370Z,1018.8
2016-12-21T00:06:59.560Z,1018.8
2016-12-21T00:08:10.538Z,1018.8
2016-12-21T00:09:21.710Z,1018.84
2016-12-21T00:10:32.893Z,1018.83
2016-12-21T00:11:44.076Z,1018.79
2016-12-21T00:12:55.057Z,1018.81
2016-12-21T00:14:06.035Z,1018.86
2016-12-21T00:15:17.022Z,1018.9
2016-12-21T00:16:28.000Z,1018.78
2016-12-21T00:17:38.986Z,1018.83
2016-12-21T00:18:49.969Z,1018.87
2016-12-21T00:20:01.355Z,1018.88
2016-12-21T00:21:12.545Z,1018.87
2016-12-21T00:22:23.525Z,1018.87
2016-12-21T00:23:34.705Z,1018.92
2016-12-21T00:24:45.691Z,1018.94
2016-12-21T00:25:56.877Z,1018.91
2016-12-21T00:27:07.861Z,1018.95
2016-12-21T00:28:18.846Z,1018.97
2016-12-21T00:29:29.841Z,1018.97
2016-12-21T00:30:40.823Z,1018.94
2016-12-21T00:31:52.002Z,1018.99
2016-12-21T00:33:02.982Z,1019.01
2016-12-21T00:34:14.179Z,1018.96
2016-12-21T00:35:25.160Z,1019.01
2016-12-21T00:36:36.145Z,1018.97
2016-12-21T00:37:47.169Z,1019.02
2016-12-21T00:38:58.153Z,1018.98
2016-12-21T00:40:09.138Z,1018.95
2016-12-21T00:41:20.124Z,1018.98
2016-12-21T00:42:31.109Z,1019
2016-12-21T00:43:42.090Z,1018.99
2016-12-21T00:44:53.067Z,1018.98
2016-12-21T00:46:04.253Z,1019
2016-12-21T00:47:15.243Z,1019.03
2016-12-21T00:48:26.229Z,1019.05
2016-12-21T00:49:37.211Z,1019.1
2016-12-21T00:50:48.249Z,1019.09
2016-12-21T00:51:59.225Z,1019.12
2016-12-21T00:53:10.202Z,1019.15
2016-12-21T00:54:21.391Z,1019.26
2016-12-21T00:55:32.375Z,1019.2
2016-12-21T00:56:43.388Z,1019.22
2016-12-21T00:57:54.374Z,1019.21
2016-12-21T00:59:05.355Z,1019.27
2016-12-21T01:00:16.388Z,1019.23
2016-12-21T01:01:27.389Z,1019.25
2016-12-21T01:02:38.373Z,1019.24
2016-12-21T01:03:49.354Z,1019.21
2016-12-21T01:05:00.334Z,1019.18
2016-12-21T01:06:11.566Z,1019.19
2016-12-21T01:07:22.545Z,1019.16
2016-12-21T01:08:33.526Z,1019.18
2016-12-21T01:09:44.537Z,1019.15
2016-12-21T01:10:55.566Z,1019.15
2016-12-21T01:12:06.552Z,1019.08
2016-12-21T01:13:17.747Z,1019.13
2016-12-21T01:14:28.730Z,1019.14
2016-12-21T01:15:39.713Z,1019.14
2016-12-21T01:16:50.697Z,1019.16
2016-12-21T01:18:01.888Z,1019.12
2016-12-21T01:19:12.877Z,1019.21
2016-12-21T01:20:24.110Z,1019.15
2016-12-21T01:21:35.093Z,1019.18
2016-12-21T01:22:46.114Z,1019.19
2016-12-21T01:23:57.301Z,1019.2
2016-12-21T01:25:08.483Z,1019.21
2016-12-21T01:26:19.494Z,1019.25
2016-12-21T01:27:30.485Z,1019.26
2016-12-21T01:28:41.466Z,1019.27
2016-12-21T01:29:52.449Z,1019.29
2016-12-21T01:31:03.441Z,1019.24
2016-12-21T01:32:14.435Z,1019.28
2016-12-21T01:33:25.424Z,1019.31
2016-12-21T01:34:36.410Z,1019.41
2016-12-21T01:35:47.592Z,1019.49
2016-12-21T01:36:58.585Z,1019.47
2016-12-21T01:38:09.570Z,1019.48
2016-12-21T01:39:20.546Z,1019.46
2016-12-21T01:40:31.780Z,1019.48
2016-12-21T01:41:42.791Z,1019.53
2016-12-21T01:42:53.777Z,1019.54
2016-12-21T01:44:04.964Z,1019.56
2016-12-21T01:45:15.950Z,1019.51
2016-12-21T01:46:26.940Z,1019.54
2016-12-21T01:47:37.920Z,1019.53
2016-12-21T01:48:49.099Z,1019.61
2016-12-21T01:50:00.282Z,1019.58
2016-12-21T01:51:11.718Z,1019.62
2016-12-21T01:52:22.705Z,1019.63
2016-12-21T01:53:33.683Z,1019.62
2016-12-21T01:54:44.670Z,1019.65
2016-12-21T01:55:55.654Z,1019.66
2016-12-21T01:57:06.646Z,1019.66
2016-12-21T01:58:17.643Z,1019.7
2016-12-21T01:59:28.639Z,1019.59
2016-12-21T02:00:39.623Z,1019.55
2016-12-21T02:01:50.637Z,1019.61
2016-12-21T02:03:01.628Z,1019.59
2016-12-21T02:04:12.615Z,1019.58
2016-12-21T02:05:23.597Z,1019.59
2016-12-21T02:06:34.582Z,1019.6
2016-12-21T02:07:45.770Z,1019.6
2016-12-21T02:08:56.759Z,1019.61
2016-12-21T02:10:07.944Z,1019.64
2016-12-21T02:11:18.926Z,1019.67
2016-12-21T02:12:29.907Z,1019.73
2016-12-21T02:13:40.934Z,1019.72
2016-12-21T02:14:51.948Z,1019.76
2016-12-21T02:16:02.926Z,1019.74
2016-12-21T02:17:14.111Z,1019.7
2016-12-21T02:18:25.098Z,1019.65
2016-12-21T02:19:36.082Z,1019.65
2016-12-21T02:20:47.268Z,1019.71
2016-12-21T02:21:58.266Z,1019.77
2016-12-21T02:23:09.450Z,1019.76
2016-12-21T02:24:20.840Z,1019.77
2016-12-21T02:25:31.870Z,1019.78
2016-12-21T02:26:42.863Z,1019.82
2016-12-21T02:27:53.848Z,1019.78
2016-12-21T02:29:04.840Z,1019.84
2016-12-21T02:30:15.871Z,1019.88
2016-12-21T02:31:26.862Z,1019.88
2016-12-21T02:32:37.844Z,1019.85
2016-12-21T02:33:48.850Z,1019.94
2016-12-21T02:34:59.843Z,1019.96
2016-12-21T02:36:10.830Z,1019.98
2016-12-21T02:37:21.840Z,1019.99
2016-12-21T02:38:32.819Z,1020.07
2016-12-21T02:39:43.810Z,1020.17
2016-12-21T02:40:54.993Z,1020.14
2016-12-21T02:42:05.967Z,1020.17
2016-12-21T02:43:16.952Z,1020.22
2016-12-21T02:44:27.943Z,1020.19
2016-12-21T02:45:38.928Z,1020.18
2016-12-21T02:46:49.914Z,1020.18
2016-12-21T02:48:01.108Z,1020.09
2016-12-21T02:49:12.096Z,1020.16
2016-12-21T02:50:23.092Z,1020.15
2016-12-21T02:51:34.077Z,1020.14
2016-12-21T02:52:45.057Z,1020.13
2016-12-21T02:53:56.040Z,1020.15
2016-12-21T02:55:07.029Z,1020.17
2016-12-21T02:56:18.213Z,1020.1
2016-12-21T02:57:29.195Z,1020.11
2016-12-21T02:58:40.194Z,1020.12
2016-12-21T02:59:51.186Z,1020.09
2016-12-21T03:01:02.177Z,1020.1
2016-12-21T03:02:13.166Z,1020.1
2016-12-21T03:03:24.151Z,1020.07
2016-12-21T03:04:35.132Z,1020.11
2016-12-21T03:05:46.124Z,1020.1
2016-12-21T03:06:57.100Z,1020.11
2016-12-21T03:08:08.084Z,1020.08
2016-12-21T03:09:19.064Z,1020.16
2016-12-21T03:10:30.053Z,1020.18
2016-12-21T03:11:41.032Z,1020.17
2016-12-21T03:12:52.037Z,1020.1
2016-12-21T03:14:03.021Z,1020.13
2016-12-21T03:15:14.204Z,1020.16
2016-12-21T03:16:25.189Z,1020.16
2016-12-21T03:17:36.185Z,1020.18
2016-12-21T03:18:47.193Z,1020.17
2016-12-21T03:19:58.179Z,1020.09
2016-12-21T03:21:09.163Z,1020.13
2016-12-21T03:22:20.143Z,1020.11
2016-12-21T03:23:31.155Z,1020.12
2016-12-21T03:24:42.342Z,1020.11
2016-12-21T03:25:53.330Z,1020.09
2016-12-21T03:27:04.312Z,1020.07
2016-12-21T03:28:15.299Z,1020.07
2016-12-21T03:29:26.290Z,1020.07
2016-12-21T03:30:37.480Z,1020.03
2016-12-21T03:31:48.665Z,1020.03
2016-12-21T03:32:59.659Z,1020.08
2016-12-21T03:34:10.649Z,1020.03
2016-12-21T03:35:21.666Z,1020.06
2016-12-21T03:36:32.652Z,1020.08
2016-12-21T03:37:43.639Z,1020.03
2016-12-21T03:38:54.619Z,1020.01
2016-12-21T03:40:05.605Z,1020.07
2016-12-21T03:41:16.794Z,1020.12
2016-12-21T03:42:27.787Z,1020.11
2016-12-21T03:43:39.166Z,1020.15
2016-12-21T03:44:50.153Z,1020.15
2016-12-21T03:46:01.145Z,1020.12
2016-12-21T03:47:12.135Z,1020.14
2016-12-21T03:48:23.118Z,1020.11
2016-12-21T03:49:34.131Z,1020.1
2016-12-21T03:50:45.111Z,1020.06
2016-12-21T03:51:56.094Z,1020.1
2016-12-21T03:53:07.095Z,1020.12
2016-12-21T03:54:18.085Z,1020.12
2016-12-21T03:55:29.072Z,1020.11
2016-12-21T03:56:40.051Z,1020.17
2016-12-21T03:57:51.044Z,1020.13
2016-12-21T03:59:02.231Z,1020.16
2016-12-21T04:00:13.220Z,1020.18
2016-12-21T04:01:24.214Z,1020.21
2016-12-21T04:02:35.201Z,1020.23
2016-12-21T04:03:46.180Z,1020.19
2016-12-21T04:04:57.167Z,1020.18
2016-12-21T04:06:08.396Z,1020.21
2016-12-21T04:07:19.379Z,1020.24
2016-12-21T04:08:30.558Z,1020.26
2016-12-21T04:09:41.747Z,1020.22
2016-12-21T04:10:52.736Z,1020.21
2016-12-21T04:12:03.724Z,1020.23
2016-12-21T04:13:14.706Z,1020.25
2016-12-21T04:14:25.691Z,1020.19
2016-12-21T04:15:36.675Z,1020.15
2016-12-21T04:16:47.652Z,1020.11
2016-12-21T04:17:58.635Z,1020.11
2016-12-21T04:19:09.617Z,1020.12
2016-12-21T04:20:20.609Z,1020.13
2016-12-21T04:21:31.590Z,1020.18
2016-12-21T04:22:42.776Z,1020.15
2016-12-21T04:23:53.756Z,1020.09
2016-12-21T04:25:04.733Z,1020.09
2016-12-21T04:26:15.724Z,1020.12
2016-12-21T04:27:26.723Z,1020.09
2016-12-21T04:28:37.731Z,1020.09
2016-12-21T04:29:48.712Z,1020.06
2016-12-21T04:30:59.952Z,1020.11
2016-12-21T04:32:10.941Z,1020.14
2016-12-21T04:33:22.121Z,1020.22
2016-12-21T04:34:33.100Z,1020.22
2016-12-21T04:35:44.290Z,1020.27
2016-12-21T04:36:55.524Z,1020.28
2016-12-21T04:38:06.510Z,1020.33
2016-12-21T04:39:17.718Z,1020.26
2016-12-21T04:40:28.911Z,1020.3
2016-12-21T04:41:39.895Z,1020.34
2016-12-21T04:42:50.927Z,1020.4
2016-12-21T04:44:01.911Z,1020.37
2016-12-21T04:45:12.898Z,1020.42
2016-12-21T04:46:23.907Z,1020.41
2016-12-21T04:47:34.900Z,1020.42
2016-12-21T04:48:46.136Z,1020.46
2016-12-21T04:49:57.118Z,1020.42
2016-12-21T04:51:08.308Z,1020.48
2016-12-21T04:52:19.284Z,1020.54
2016-12-21T04:53:30.273Z,1020.58
2016-12-21T04:54:41.310Z,1020.57
2016-12-21T04:55:52.300Z,1020.57
2016-12-21T04:57:03.284Z,1020.57
2016-12-21T04:58:14.269Z,1020.55
2016-12-21T04:59:25.251Z,1020.43
2016-12-21T05:00:36.235Z,1020.4
2016-12-21T05:01:47.216Z,1020.41
2016-12-21T05:02:58.235Z,1020.45
2016-12-21T05:04:09.231Z,1020.43
2016-12-21T05:05:20.216Z,1020.46
2016-12-21T05:06:31.198Z,1020.5
2016-12-21T05:07:42.187Z,1020.51
2016-12-21T05:08:53.172Z,1020.51
2016-12-21T05:10:04.153Z,1020.55
2016-12-21T05:11:15.143Z,1020.59
2016-12-21T05:12:26.151Z,1020.6
2016-12-21T05:13:37.143Z,1020.58
2016-12-21T05:14:48.115Z,1020.59
2016-12-21T05:15:59.299Z,1020.63
2016-12-21T05:17:10.286Z,1020.63
2016-12-21T05:18:21.472Z,1020.64
2016-12-21T05:19:32.462Z,1020.64
2016-12-21T05:20:43.442Z,1020.6
2016-12-21T05:21:54.428Z,1020.59
2016-12-21T05:23:05.422Z,1020.58
2016-12-21T05:24:16.402Z,1020.63
2016-12-21T05:25:27.441Z,1020.62
2016-12-21T05:26:38.427Z,1020.58
2016-12-21T05:27:49.610Z,1020.58
2016-12-21T05:29:00.587Z,1020.55
2016-12-21T05:30:11.778Z,1020.47
2016-12-21T05:31:22.764Z,1020.42
2016-12-21T05:32:33.747Z,1020.46
2016-12-21T05:33:44.732Z,1020.46
2016-12-21T05:34:55.719Z,1020.51
2016-12-21T05:36:06.702Z,1020.52
2016-12-21T05:37:17.693Z,1020.56
2016-12-21T05:38:28.680Z,1020.61
2016-12-21T05:39:40.090Z,1020.59
2016-12-21T05:40:51.077Z,1020.51
2016-12-21T05:42:02.092Z,1020.52
2016-12-21T05:43:13.091Z,1020.58
2016-12-21T05:44:24.075Z,1020.64
2016-12-21T05:45:35.115Z,1020.57
2016-12-21T05:46:46.113Z,1020.6
2016-12-21T05:47:57.120Z,1020.72
2016-12-21T05:49:08.103Z,1020.72
2016-12-21T05:50:19.088Z,1020.58
2016-12-21T05:51:30.066Z,1020.61
2016-12-21T05:52:41.251Z,1020.59
2016-12-21T05:53:52.436Z,1020.68
2016-12-21T05:55:03.421Z,1020.71
2016-12-21T05:56:14.403Z,1020.71
2016-12-21T05:57:25.391Z,1020.63
2016-12-21T05:58:36.374Z,1020.7
2016-12-21T05:59:47.360Z,1020.81
2016-12-21T06:00:58.348Z,1020.78
2016-12-21T06:02:09.330Z,1020.75
2016-12-21T06:03:20.320Z,1020.7
2016-12-21T06:04:31.305Z,1020.62
2016-12-21T06:05:42.286Z,1020.53
2016-12-21T06:06:53.281Z,1020.53
2016-12-21T06:08:04.255Z,1020.56
2016-12-21T06:09:15.266Z,1020.65
2016-12-21T06:10:26.655Z,1020.59
2016-12-21T06:11:37.672Z,1020.75
2016-12-21T06:12:48.853Z,1020.61
2016-12-21T06:13:59.840Z,1020.53
2016-12-21T06:15:10.828Z,1020.49
2016-12-21T06:16:21.812Z,1020.5
2016-12-21T06:17:32.794Z,1020.48
2016-12-21T06:18:44.181Z,1020.49
2016-12-21T06:19:55.172Z,1020.42
2016-12-21T06:21:06.240Z,1020.45
2016-12-21T06:22:17.436Z,1020.55
2016-12-21T06:23:28.419Z,1020.56
2016-12-21T06:24:39.400Z,1020.45
2016-12-21T06:25:50.432Z,1020.49
2016-12-21T06:27:01.410Z,1020.45
2016-12-21T06:28:12.385Z,1020.39
2016-12-21T06:29:23.366Z,1020.34
2016-12-21T06:30:34.352Z,1020.37
2016-12-21T06:31:45.734Z,1020.39
2016-12-21T06:32:56.724Z,1020.43
2016-12-21T06:34:07.710Z,1020.44
2016-12-21T06:35:18.697Z,1020.34
2016-12-21T06:36:29.678Z,1020.32
2016-12-21T06:37:40.661Z,1020.37
2016-12-21T06:38:51.641Z,1020.41
2016-12-21T06:40:02.626Z,1020.47
2016-12-21T06:41:13.608Z,1020.56
2016-12-21T06:42:24.589Z,1020.59
2016-12-21T06:43:35.565Z,1020.55
2016-12-21T06:44:46.568Z,1020.49
2016-12-21T06:45:57.554Z,1020.46
2016-12-21T06:47:08.742Z,1020.45
2016-12-21T06:48:19.725Z,1020.36
2016-12-21T06:49:30.701Z,1020.32
2016-12-21T06:50:41.676Z,1020.44
2016-12-21T06:51:52.862Z,1020.5
2016-12-21T06:53:03.853Z,1020.48
2016-12-21T06:54:14.828Z,1020.5
2016-12-21T06:55:26.015Z,1020.52
2016-12-21T06:56:36.993Z,1020.59
2016-12-21T06:57:47.976Z,1020.55
2016-12-21T06:58:58.957Z,1020.46
2016-12-21T07:00:10.136Z,1020.45
2016-12-21T07:01:21.116Z,1020.47
2016-12-21T07:02:32.110Z,1020.59
2016-12-21T07:03:43.101Z,1020.58
2016-12-21T07:04:54.088Z,1020.55
2016-12-21T07:06:05.079Z,1020.49
2016-12-21T07:07:16.065Z,1020.56
2016-12-21T07:08:27.057Z,1020.58
2016-12-21T07:09:38.240Z,1020.49
2016-12-21T07:10:49.221Z,1020.42
2016-12-21T07:12:00.209Z,1020.48
2016-12-21T07:13:11.199Z,1020.48
2016-12-21T07:14:22.381Z,1020.51
2016-12-21T07:15:33.358Z,1020.5
2016-12-21T07:16:44.330Z,1020.47
2016-12-21T07:17:55.307Z,1020.5
2016-12-21T07:19:06.282Z,1020.52
2016-12-21T07:20:17.327Z,1020.59
2016-12-21T07:21:28.312Z,1020.61
2016-12-21T07:22:39.298Z,1020.57
2016-12-21T07:23:50.285Z,1020.57
2016-12-21T07:25:01.276Z,1020.55
2016-12-21T07:26:12.464Z,1020.64
2016-12-21T07:27:23.474Z,1020.72
2016-12-21T07:28:34.454Z,1020.71
2016-12-21T07:29:45.439Z,1020.73
2016-12-21T07:30:56.425Z,1020.76
2016-12-21T07:32:07.406Z,1020.71
2016-12-21T07:33:18.394Z,1020.74
2016-12-21T07:34:29.386Z,1020.76
2016-12-21T07:35:40.386Z,1020.82
2016-12-21T07:36:51.376Z,1020.78
2016-12-21T07:38:02.366Z,1020.8
2016-12-21T07:39:13.544Z,1020.79
2016-12-21T07:40:24.584Z,1020.77
2016-12-21T07:41:35.566Z,1020.75
2016-12-21T07:42:46.548Z,1020.73
2016-12-21T07:43:57.735Z,1020.71
2016-12-21T07:45:08.741Z,1020.72
2016-12-21T07:46:19.920Z,1020.7
2016-12-21T07:47:31.308Z,1020.75
2016-12-21T07:48:42.289Z,1020.72
2016-12-21T07:49:53.269Z,1020.68
2016-12-21T07:51:04.253Z,1020.72
2016-12-21T07:52:15.234Z,1020.7
2016-12-21T07:53:26.247Z,1020.64
2016-12-21T07:54:37.227Z,1020.62
2016-12-21T07:55:48.264Z,1020.58
2016-12-21T07:56:59.248Z,1020.63
2016-12-21T07:58:10.257Z,1020.58
2016-12-21T07:59:21.442Z,1020.6
2016-12-21T08:00:32.423Z,1020.56
2016-12-21T08:01:43.399Z,1020.51
2016-12-21T08:02:54.383Z,1020.5
2016-12-21T08:04:05.368Z,1020.57
2016-12-21T08:05:16.552Z,1020.65
2016-12-21T08:06:27.539Z,1020.65
2016-12-21T08:07:38.527Z,1020.67
2016-12-21T08:08:49.520Z,1020.7
2016-12-21T08:10:00.503Z,1020.74
2016-12-21T08:11:11.489Z,1020.75
2016-12-21T08:12:22.478Z,1020.74
2016-12-21T08:13:33.661Z,1020.82
2016-12-21T08:14:44.642Z,1020.85
2016-12-21T08:15:55.828Z,1020.92
2016-12-21T08:17:06.805Z,1020.87
2016-12-21T08:18:17.789Z,1020.84
2016-12-21T08:19:28.774Z,1020.89
2016-12-21T08:20:39.778Z,1020.88
2016-12-21T08:21:50.768Z,1020.93
2016-12-21T08:23:01.756Z,1020.92
2016-12-21T08:24:12.737Z,1020.94
2016-12-21T08:25:23.731Z,1021.01
2016-12-21T08:26:34.708Z,1020.99
2016-12-21T08:27:45.689Z,1021.04
2016-12-21T08:28:56.674Z,1021.05
2016-12-21T08:30:07.659Z,1021.06
2016-12-21T08:31:18.847Z,1021.11
2016-12-21T08:32:29.830Z,1021.08
2016-12-21T08:33:40.819Z,1021.09
2016-12-21T08:34:51.995Z,1021.05
2016-12-21T08:36:03.180Z,1021.01
2016-12-21T08:37:14.176Z,1021.05
2016-12-21T08:38:25.172Z,1021.05
2016-12-21T08:39:36.159Z,1021.03
2016-12-21T08:40:47.150Z,1021.04
2016-12-21T08:41:58.129Z,1021.07
2016-12-21T08:43:09.113Z,1021.05
2016-12-21T08:44:20.095Z,1021.09
2016-12-21T08:45:31.691Z,1021.12
2016-12-21T08:46:42.883Z,1021.06
2016-12-21T08:47:54.079Z,1021.01
2016-12-21T08:49:05.062Z,1021.01
2016-12-21T08:50:16.256Z,1020.95
2016-12-21T08:51:27.244Z,1020.99
2016-12-21T08:52:38.269Z,1020.99
2016-12-21T08:53:49.447Z,1021.01
2016-12-21T08:55:00.434Z,1021.03
2016-12-21T08:56:11.467Z,1021.01
2016-12-21T08:57:22.448Z,1021.01
2016-12-21T08:58:33.429Z,1020.97
2016-12-21T08:59:44.409Z,1020.98
2016-12-21T09:00:55.622Z,1020.97
2016-12-21T09:02:06.615Z,1020.98
2016-12-21T09:03:17.601Z,1021.04
2016-12-21T09:04:28.585Z,1021.04
2016-12-21T09:05:39.571Z,1021.05
2016-12-21T09:06:50.562Z,1021.09
2016-12-21T09:08:01.754Z,1021.1
2016-12-21T09:09:12.749Z,1021.1
2016-12-21T09:10:23.781Z,1021.1
2016-12-21T09:11:34.769Z,1021.11
2016-12-21T09:12:45.758Z,1021.14
2016-12-21T09:13:56.742Z,1021.2
2016-12-21T09:15:07.729Z,1021.24
2016-12-21T09:16:18.713Z,1021.25
2016-12-21T09:17:29.697Z,1021.25
2016-12-21T09:18:40.895Z,1021.21
2016-12-21T09:19:51.873Z,1021.15
2016-12-21T09:21:02.907Z,1021.2
2016-12-21T09:22:13.892Z,1021.22
2016-12-21T09:23:24.886Z,1021.2
2016-12-21T09:24:35.882Z,1021.23
2016-12-21T09:25:47.072Z,1021.24
2016-12-21T09:26:58.106Z,1021.23
2016-12-21T09:28:09.093Z,1021.2
2016-12-21T09:29:20.075Z,1021.16
2016-12-21T09:30:31.056Z,1021.21
2016-12-21T09:31:42.043Z,1021.26
2016-12-21T09:32:53.081Z,1021.29
2016-12-21T09:34:04.277Z,1021.28
2016-12-21T09:35:15.472Z,1021.34
2016-12-21T09:36:26.459Z,1021.35
2016-12-21T09:37:37.840Z,1021.35
2016-12-21T09:38:48.874Z,1021.39
2016-12-21T09:39:59.862Z,1021.39
2016-12-21T09:41:11.047Z,1021.42
2016-12-21T09:42:22.034Z,1021.43
2016-12-21T09:43:33.033Z,1021.51
2016-12-21T09:44:44.272Z,1021.5
2016-12-21T09:45:55.254Z,1021.58
2016-12-21T09:47:06.249Z,1021.52
2016-12-21T09:48:17.258Z,1021.48
2016-12-21T09:49:28.239Z,1021.5
2016-12-21T09:50:39.435Z,1021.55
2016-12-21T09:51:50.426Z,1021.52
2016-12-21T09:53:01.416Z,1021.48
2016-12-21T09:54:12.406Z,1021.46
2016-12-21T09:55:23.407Z,1021.38
2016-12-21T09:56:34.601Z,1021.4
2016-12-21T09:57:45.598Z,1021.42
2016-12-21T09:58:56.591Z,1021.36
2016-12-21T10:00:07.583Z,1021.31
2016-12-21T10:01:18.584Z,1021.32
2016-12-21T10:02:29.984Z,1021.29
2016-12-21T10:03:40.977Z,1021.28
2016-12-21T10:04:51.976Z,1021.24
2016-12-21T10:06:03.017Z,1021.29
2016-12-21T10:07:14.015Z,1021.21
2016-12-21T10:08:25.043Z,1021.25
2016-12-21T10:09:36.029Z,1021.24
2016-12-21T10:10:47.024Z,1021.28
2016-12-21T10:11:58.011Z,1021.27
2016-12-21T10:13:09.209Z,1021.19
2016-12-21T10:14:20.207Z,1021.22
2016-12-21T10:15:31.459Z,1021.17
2016-12-21T10:16:42.454Z,1021.19
2016-12-21T10:17:53.657Z,1021.19
2016-12-21T10:19:04.645Z,1021.27
2016-12-21T10:20:15.843Z,1021.23
2016-12-21T10:21:26.843Z,1021.31
2016-12-21T10:22:37.836Z,1021.33
2016-12-21T10:23:48.832Z,1021.35
2016-12-21T10:24:59.838Z,1021.38
2016-12-21T10:26:10.834Z,1021.27
2016-12-21T10:27:21.830Z,1021.29
2016-12-21T10:28:32.850Z,1021.27
2016-12-21T10:29:43.845Z,1021.25
2016-12-21T10:30:54.852Z,1021.23
2016-12-21T10:32:05.853Z,1021.3
2016-12-21T10:33:16.846Z,1021.36
2016-12-21T10:34:27.840Z,1021.44
2016-12-21T10:35:39.041Z,1021.41
2016-12-21T10:36:50.067Z,1021.37
2016-12-21T10:38:01.073Z,1021.4
2016-12-21T10:39:12.074Z,1021.36
2016-12-21T10:40:23.329Z,1021.33
2016-12-21T10:41:34.337Z,1021.32
2016-12-21T10:42:45.339Z,1021.33
2016-12-21T10:43:56.348Z,1021.31
2016-12-21T10:45:07.339Z,1021.28
2016-12-21T10:46:18.532Z,1021.3
2016-12-21T10:47:29.530Z,1021.3
2016-12-21T10:48:40.520Z,1021.3
2016-12-21T10:49:51.520Z,1021.25
2016-12-21T10:51:02.517Z,1021.25
2016-12-21T10:52:13.719Z,1021.17
2016-12-21T10:53:24.715Z,1021.19
2016-12-21T10:54:35.709Z,1021.22
2016-12-21T10:55:46.754Z,1021.2
2016-12-21T10:56:57.949Z,1021.2
2016-12-21T10:58:08.940Z,1021.27
2016-12-21T10:59:19.934Z,1021.25
2016-12-21T11:00:30.959Z,1021.27
2016-12-21T11:01:41.951Z,1021.21
2016-12-21T11:02:52.943Z,1021.22
2016-12-21T11:04:04.132Z,1021.2
2016-12-21T11:05:15.390Z,1021.19
2016-12-21T11:06:26.784Z,1021.16
2016-12-21T11:07:37.776Z,1021.21
2016-12-21T11:08:48.972Z,1021.05
2016-12-21T11:10:00.002Z,1021.15
2016-12-21T11:11:10.992Z,1021.2
2016-12-21T11:12:21.985Z,1021.19
2016-12-21T11:13:32.979Z,1021.27
2016-12-21T11:14:43.969Z,1021.28
2016-12-21T11:15:54.961Z,1021.33
2016-12-21T11:17:05.959Z,1021.33
2016-12-21T11:18:17.163Z,1021.28
2016-12-21T11:19:28.161Z,1021.29
2016-12-21T11:20:39.352Z,1021.25
2016-12-21T11:21:50.345Z,1021.25
2016-12-21T11:23:01.349Z,1021.26
2016-12-21T11:24:12.355Z,1021.21
2016-12-21T11:25:23.399Z,1021.19
2016-12-21T11:26:34.592Z,1021.21
2016-12-21T11:27:45.586Z,1021.23
2016-12-21T11:28:56.572Z,1021.26
2016-12-21T11:30:07.562Z,1021.28
2016-12-21T11:31:18.573Z,1021.25
2016-12-21T11:32:29.602Z,1021.24
2016-12-21T11:33:40.598Z,1021.21
2016-12-21T11:34:51.782Z,1021.17
2016-12-21T11:36:02.766Z,1021.12
2016-12-21T11:37:13.757Z,1021.12
2016-12-21T11:38:24.746Z,1021.12
2016-12-21T11:39:35.743Z,1021.15
2016-12-21T11:40:46.726Z,1021.16
2016-12-21T11:41:57.720Z,1021.12
2016-12-21T11:43:08.724Z,1021.12
2016-12-21T11:44:19.910Z,1021.07
2016-12-21T11:45:31.104Z,1021.09
2016-12-21T11:46:42.101Z,1021.06
2016-12-21T11:47:53.095Z,1021.04
2016-12-21T11:49:04.123Z,1021.02
2016-12-21T11:50:15.111Z,1020.97
2016-12-21T11:51:26.104Z,1020.99
2016-12-21T11:52:37.098Z,1020.98
2016-12-21T11:53:48.090Z,1021.02
2016-12-21T11:54:59.089Z,1021.02
2016-12-21T11:56:10.132Z,1021
2016-12-21T11:57:21.154Z,1021
2016-12-21T11:58:32.342Z,1020.96
2016-12-21T11:59:43.337Z,1020.97
2016-12-21T12:00:54.377Z,1020.99
2016-12-21T12:02:05.373Z,1020.96
2016-12-21T12:03:16.365Z,1020.99
2016-12-21T12:04:27.355Z,1020.99
2016-12-21T12:05:38.375Z,1020.97
2016-12-21T12:06:49.636Z,1020.93
2016-12-21T12:08:00.634Z,1020.95
2016-12-21T12:09:11.628Z,1021
2016-12-21T12:10:22.626Z,1021
2016-12-21T12:11:33.818Z,1020.97
2016-12-21T12:12:44.858Z,1020.86
2016-12-21T12:13:56.049Z,1020.86
2016-12-21T12:15:07.040Z,1020.84
2016-12-21T12:16:18.023Z,1020.84
2016-12-21T12:17:29.013Z,1020.81
2016-12-21T12:18:40.048Z,1020.81
2016-12-21T12:19:51.230Z,1020.75
2016-12-21T12:21:02.427Z,1020.78
2016-12-21T12:22:13.612Z,1020.71
2016-12-21T12:23:24.803Z,1020.71
2016-12-21T12:24:35.838Z,1020.76
2016-12-21T12:25:46.826Z,1020.78
2016-12-21T12:26:58.017Z,1020.83
2016-12-21T12:28:08.998Z,1020.76
2016-12-21T12:29:20.188Z,1020.75
2016-12-21T12:30:31.201Z,1020.74
2016-12-21T12:31:42.193Z,1020.8
2016-12-21T12:32:53.194Z,1020.79
2016-12-21T12:34:04.182Z,1020.82
2016-12-21T12:35:15.254Z,1020.78
2016-12-21T12:36:26.244Z,1020.76
2016-12-21T12:37:37.238Z,1020.72
2016-12-21T12:38:48.230Z,1020.71
2016-12-21T12:39:59.220Z,1020.79
2016-12-21T12:41:10.216Z,1020.72
2016-12-21T12:42:21.411Z,1020.8
2016-12-21T12:43:32.402Z,1020.73
2016-12-21T12:44:43.391Z,1020.73
2016-12-21T12:45:54.385Z,1020.73
2016-12-21T12:47:05.372Z,1020.76
2016-12-21T12:48:16.571Z,1020.76
2016-12-21T12:49:27.763Z,1020.78
2016-12-21T12:50:38.802Z,1020.74
2016-12-21T12:51:49.784Z,1020.76
2016-12-21T12:53:00.779Z,1020.75
2016-12-21T12:54:11.769Z,1020.72
2016-12-21T12:55:22.761Z,1020.74
2016-12-21T12:56:33.749Z,1020.73
2016-12-21T12:57:44.945Z,1020.73
2016-12-21T12:58:55.936Z,1020.68
2016-12-21T13:00:06.947Z,1020.69
2016-12-21T13:01:17.925Z,1020.71
2016-12-21T13:02:28.913Z,1020.7
2016-12-21T13:03:39.909Z,1020.61
2016-12-21T13:04:50.901Z,1020.65
2016-12-21T13:06:01.900Z,1020.62
2016-12-21T13:07:12.886Z,1020.66
2016-12-21T13:08:23.871Z,1020.67
2016-12-21T13:09:34.854Z,1020.65
2016-12-21T13:10:45.834Z,1020.82
2016-12-21T13:11:56.827Z,1020.76
2016-12-21T13:13:07.824Z,1020.78
2016-12-21T13:14:18.808Z,1020.75
2016-12-21T13:15:29.799Z,1020.79
2016-12-21T13:16:40.779Z,1020.8
2016-12-21T13:17:51.763Z,1020.82
2016-12-21T13:19:02.747Z,1020.87
2016-12-21T13:20:13.786Z,1020.84
2016-12-21T13:21:24.784Z,1020.86
2016-12-21T13:22:35.977Z,1020.88
2016-12-21T13:23:46.956Z,1020.92
2016-12-21T13:24:57.944Z,1020.93
2016-12-21T13:26:08.933Z,1021
2016-12-21T13:27:19.921Z,1021.04
2016-12-21T13:28:30.915Z,1021.05
2016-12-21T13:29:41.901Z,1021.07
2016-12-21T13:30:52.892Z,1021.11
2016-12-21T13:32:03.877Z,1021.07
2016-12-21T13:33:14.872Z,1021.14
2016-12-21T13:34:25.852Z,1021.11
2016-12-21T13:35:36.849Z,1021.14
2016-12-21T13:36:47.838Z,1021.09
2016-12-21T13:37:59.035Z,1021.06
2016-12-21T13:39:10.026Z,1021.08
2016-12-21T13:40:21.008Z,1021.1
2016-12-21T13:41:32.004Z,1021.11
2016-12-21T13:42:42.992Z,1021.1
2016-12-21T13:43:53.986Z,1021.06
2016-12-21T13:45:04.970Z,1021.1
2016-12-21T13:46:15.967Z,1021.09
2016-12-21T13:47:26.965Z,1021.14
2016-12-21T13:48:37.955Z,1021.14
2016-12-21T13:49:48.950Z,1021.13
2016-12-21T13:50:59.936Z,1021.14
2016-12-21T13:52:11.126Z,1021.15
2016-12-21T13:53:22.113Z,1021.17
2016-12-21T13:54:33.113Z,1021.14
2016-12-21T13:55:44.100Z,1021.11
2016-12-21T13:56:55.088Z,1021.14
2016-12-21T13:58:06.069Z,1021.17
2016-12-21T13:59:17.055Z,1021.21
2016-12-21T14:00:28.044Z,1021.22
2016-12-21T14:01:39.232Z,1021.24
2016-12-21T14:02:50.222Z,1021.27
2016-12-21T14:04:01.209Z,1021.23
2016-12-21T14:05:12.195Z,1021.22
2016-12-21T14:06:23.179Z,1021.16
2016-12-21T14:07:34.166Z,1021.09
2016-12-21T14:08:45.156Z,1021.15
2016-12-21T14:09:56.146Z,1021.1
2016-12-21T14:11:07.140Z,1021.17
2016-12-21T14:12:18.125Z,1021.13
2016-12-21T14:13:29.117Z,1021.13
2016-12-21T14:14:40.108Z,1021.13
2016-12-21T14:15:51.091Z,1021.14
2016-12-21T14:17:02.081Z,1021.14
2016-12-21T14:18:13.078Z,1021.08
2016-12-21T14:19:24.069Z,1021.12
2016-12-21T14:20:35.059Z,1021.1
2016-12-21T14:21:46.254Z,1021.09
2016-12-21T14:22:57.238Z,1021.09